Time;durP1;ratioP1;P1;durP2;ratioP2;P2;SDS_P1;SDS_P2;PMS_P1;PMS_P2;Temp;Humidity;BMP_temperature;BMP_pressure;BME280_temperature;BME280_humidity;BME280_pressure;Samples;Min_cycle;Max_cycle;Signal;HPM_P1;HPM_P2
2022/07/31 00:02:19;;;;;;;2.42;2.10;;;18.70;99.90;;;;;;4999825;28;20224;-92
2022/07/31 00:04:45;;;;;;;3.03;2.10;;;18.70;99.90;;;;;;5034903;28;20267;-91
2022/07/31 00:07:10;;;;;;;4.78;2.83;;;18.70;99.90;;;;;;5016394;28;20191;-90
2022/07/31 00:09:36;;;;;;;2.72;2.30;;;18.70;99.90;;;;;;5035222;28;20175;-91
2022/07/31 00:12:03;;;;;;;4.00;2.35;;;18.70;99.90;;;;;;5034550;28;20217;-91
2022/07/31 00:14:28;;;;;;;4.68;2.17;;;18.70;99.90;;;;;;5034234;28;20219;-90
2022/07/31 00:16:56;;;;;;;2.38;2.17;;;18.70;99.90;;;;;;5034596;28;20184;-92
2022/07/31 00:19:21;;;;;;;2.72;2.10;;;18.70;99.90;;;;;;5034421;28;20175;-91
2022/07/31 00:21:47;;;;;;;3.40;2.20;;;18.70;99.90;;;;;;5016468;28;20212;-91
2022/07/31 00:24:13;;;;;;;3.45;2.28;;;18.70;99.90;;;;;;5034803;28;20630;-90
2022/07/31 00:26:39;;;;;;;3.85;2.10;;;18.70;99.90;;;;;;5016218;28;20177;-92
2022/07/31 00:29:05;;;;;;;3.00;2.10;;;18.60;99.90;;;;;;5033828;28;20697;-91
2022/07/31 00:31:31;;;;;;;2.70;2.17;;;18.60;99.90;;;;;;5034322;28;20180;-91
2022/07/31 00:33:57;;;;;;;4.97;2.10;;;18.60;99.90;;;;;;5033965;28;20255;-91
2022/07/31 00:36:22;;;;;;;3.03;2.47;;;18.60;99.90;;;;;;5033938;28;20218;-91
2022/07/31 00:38:48;;;;;;;3.40;2.47;;;18.60;99.90;;;;;;5032637;28;20179;-90
2022/07/31 00:41:13;;;;;;;2.85;2.17;;;18.60;99.90;;;;;;5034588;28;20208;-89
2022/07/31 00:43:39;;;;;;;2.97;2.20;;;18.60;99.90;;;;;;5016009;28;20184;-91
2022/07/31 00:46:05;;;;;;;2.80;2.10;;;18.60;99.90;;;;;;5032867;28;20187;-91
2022/07/31 00:48:31;;;;;;;2.58;2.17;;;18.60;99.90;;;;;;5021187;28;20231;-92
2022/07/31 00:50:57;;;;;;;3.30;2.53;;;18.60;99.90;;;;;;5037540;28;20185;-90
2022/07/31 00:53:23;;;;;;;2.90;2.33;;;18.60;99.90;;;;;;5037519;28;20600;-91
2022/07/31 00:55:48;;;;;;;3.10;2.10;;;18.60;99.90;;;;;;5035594;28;20290;-91
2022/07/31 00:58:14;;;;;;;3.60;2.08;;;18.60;99.90;;;;;;5016145;28;20630;-92
2022/07/31 01:00:39;;;;;;;3.72;2.30;;;18.60;99.90;;;;;;5033669;28;20204;-92
2022/07/31 01:03:05;;;;;;;3.95;3.08;;;18.60;99.90;;;;;;5033658;28;20223;-91
2022/07/31 01:05:31;;;;;;;2.95;2.35;;;18.60;99.90;;;;;;5015729;28;20184;-92
2022/07/31 01:07:56;;;;;;;1.73;1.60;;;18.50;99.90;;;;;;5017465;28;20207;-92
2022/07/31 01:10:33;;;;;;;4.07;2.35;;;18.50;99.90;;;;;;5015560;28;20177;-92
2022/07/31 01:13:07;;;;;;;4.32;2.20;;;18.60;99.90;;;;;;5034101;28;20638;-91
2022/07/31 01:15:33;;;;;;;2.10;1.77;;;18.60;99.90;;;;;;5034296;28;20153;-90
2022/07/31 01:18:00;;;;;;;3.03;2.00;;;18.50;99.90;;;;;;5015986;28;20184;-91
2022/07/31 01:20:27;;;;;;;1.73;1.63;;;18.50;99.90;;;;;;5016838;28;20202;-91
2022/07/31 01:23:05;;;;;;;1.80;1.70;;;18.50;99.90;;;;;;5032784;28;20234;-91
2022/07/31 01:25:57;;;;;;;2.72;2.20;;;18.50;99.90;;;;;;5033858;28;20165;-91
2022/07/31 01:29:00;;;;;;;2.67;1.92;;;18.40;99.90;;;;;;5032055;28;20184;-92
2022/07/31 01:31:41;;;;;;;2.13;1.75;;;18.40;99.90;;;;;;5031847;28;20708;-92
2022/07/31 01:34:13;;;;;;;2.10;1.90;;;18.40;99.90;;;;;;5033901;28;20221;-92
2022/07/31 01:36:45;;;;;;;4.25;2.30;;;18.40;99.90;;;;;;5017003;28;20176;-93
2022/07/31 01:39:11;;;;;;;2.55;1.88;;;18.40;99.90;;;;;;5037960;28;20632;-93
2022/07/31 01:41:41;;;;;;;3.30;2.35;;;18.30;99.90;;;;;;5035819;28;20232;-93
2022/07/31 01:44:09;;;;;;;4.32;2.10;;;18.40;99.90;;;;;;5036950;28;20238;-93
2022/07/31 01:46:37;;;;;;;3.35;2.33;;;18.40;99.90;;;;;;5019062;28;20533;-92
2022/07/31 01:49:04;;;;;;;2.75;2.22;;;18.40;99.90;;;;;;5037046;28;20173;-91
2022/07/31 01:51:31;;;;;;;2.67;2.28;;;18.40;99.90;;;;;;5036363;28;20192;-91
2022/07/31 01:53:59;;;;;;;2.97;2.28;;;18.40;99.90;;;;;;5037860;28;20184;-91
2022/07/31 01:56:26;;;;;;;3.33;2.45;;;18.40;99.90;;;;;;5035691;28;20180;-91
2022/07/31 01:58:53;;;;;;;4.97;2.78;;;18.30;99.90;;;;;;5018461;28;20188;-91
2022/07/31 02:01:19;;;;;;;3.15;2.00;;;18.30;99.90;;;;;;5035778;28;20246;-89
2022/07/31 02:03:46;;;;;;;2.47;1.88;;;18.30;99.90;;;;;;5018698;28;20195;-91
2022/07/31 02:06:17;;;;;;;3.03;2.05;;;18.30;99.90;;;;;;5002317;28;20219;-91
2022/07/31 02:08:46;;;;;;;5.22;1.50;;;18.30;99.90;;;;;;5036752;28;20695;-91
2022/07/31 02:11:13;;;;;;;4.95;2.20;;;18.30;99.90;;;;;;5036785;28;20205;-90
2022/07/31 02:13:39;;;;;;;2.00;1.80;;;18.30;99.90;;;;;;5036139;28;20176;-91
2022/07/31 02:16:05;;;;;;;2.13;1.70;;;18.30;99.90;;;;;;5037295;28;20260;-91
2022/07/31 02:18:32;;;;;;;3.22;1.85;;;18.30;99.90;;;;;;5003178;28;20180;-90
2022/07/31 02:20:58;;;;;;;4.38;2.10;;;18.30;99.90;;;;;;5037302;28;20243;-93
2022/07/31 02:23:24;;;;;;;2.70;1.70;;;18.30;99.90;;;;;;5019219;28;20208;-92
2022/07/31 02:25:50;;;;;;;1.45;1.35;;;18.20;99.90;;;;;;5036822;28;20177;-91
2022/07/31 02:28:19;;;;;;;2.65;1.40;;;18.20;99.90;;;;;;5019009;28;20521;-93
2022/07/31 02:30:47;;;;;;;2.60;2.22;;;18.20;99.90;;;;;;4986446;28;20185;-93
2022/07/31 02:33:17;;;;;;;1.40;1.30;;;18.20;99.90;;;;;;5036822;28;20176;-94
2022/07/31 02:35:44;;;;;;;2.40;1.50;;;18.20;99.90;;;;;;5036530;28;20167;-93
2022/07/31 02:38:11;;;;;;;2.42;1.60;;;18.20;99.90;;;;;;5037944;28;20262;-92
2022/07/31 02:40:39;;;;;;;2.97;2.08;;;18.20;99.90;;;;;;5020573;28;20172;-92
2022/07/31 02:43:05;;;;;;;2.15;1.70;;;18.20;99.90;;;;;;5037734;28;20172;-93
2022/07/31 02:45:32;;;;;;;1.65;1.33;;;18.20;99.90;;;;;;5020368;28;20591;-93
2022/07/31 02:47:58;;;;;;;1.92;1.55;;;18.20;99.90;;;;;;5037021;28;20188;-91
2022/07/31 02:50:24;;;;;;;2.15;1.83;;;18.20;99.90;;;;;;5021340;28;20181;-92
2022/07/31 02:52:49;;;;;;;1.70;1.25;;;18.20;99.90;;;;;;5019523;28;20537;-94
2022/07/31 02:55:17;;;;;;;1.88;1.30;;;18.20;99.90;;;;;;5037282;28;20229;-93
2022/07/31 02:57:42;;;;;;;1.65;1.35;;;18.20;99.90;;;;;;5036401;28;20180;-93
2022/07/31 03:00:22;;;;;;;2.08;1.65;;;18.20;99.90;;;;;;5002891;28;20176;-93
2022/07/31 03:02:49;;;;;;;1.98;1.70;;;18.20;99.90;;;;;;5019563;28;20207;-92
2022/07/31 03:05:15;;;;;;;1.55;1.40;;;18.20;99.90;;;;;;5037516;28;20275;-95
2022/07/31 03:07:41;;;;;;;1.70;1.60;;;18.20;99.90;;;;;;5020278;28;20212;-92
2022/07/31 03:10:09;;;;;;;2.13;1.48;;;18.20;99.90;;;;;;5003778;28;20196;-94
2022/07/31 03:12:38;;;;;;;2.60;1.67;;;18.20;99.90;;;;;;5037613;28;20259;-94
2022/07/31 03:15:08;;;;;;;1.63;1.25;;;18.20;99.90;;;;;;5038364;28;20179;-93
2022/07/31 03:17:37;;;;;;;2.08;1.63;;;18.20;99.90;;;;;;5003763;28;20173;-93
2022/07/31 03:20:04;;;;;;;2.58;1.65;;;18.20;99.90;;;;;;5037893;28;20203;-91
2022/07/31 03:22:30;;;;;;;1.60;1.35;;;18.20;99.90;;;;;;5037488;28;20226;-92
2022/07/31 03:24:56;;;;;;;2.88;1.05;;;18.20;99.90;;;;;;5019114;28;20184;-92
2022/07/31 03:27:22;;;;;;;1.67;1.40;;;18.20;99.90;;;;;;5018949;28;20176;-94
2022/07/31 03:29:48;;;;;;;2.58;1.63;;;18.20;99.90;;;;;;5018865;28;20183;-93
2022/07/31 03:32:13;;;;;;;1.33;1.23;;;18.20;99.90;;;;;;5036663;28;20188;-93
2022/07/31 03:34:39;;;;;;;2.75;1.83;;;18.20;99.90;;;;;;5016324;28;20617;-92
2022/07/31 03:37:05;;;;;;;1.95;1.45;;;18.20;99.90;;;;;;5015681;28;20181;-92
2022/07/31 03:39:30;;;;;;;2.58;1.90;;;18.20;99.90;;;;;;5015217;28;20196;-92
2022/07/31 03:41:57;;;;;;;1.90;1.33;;;18.30;99.90;;;;;;4998729;28;20211;-92
2022/07/31 03:44:24;;;;;;;2.60;2.10;;;18.20;99.90;;;;;;5017405;28;20248;-91
2022/07/31 03:46:50;;;;;;;2.75;1.60;;;18.20;99.90;;;;;;5017810;28;20252;-92
2022/07/31 03:49:16;;;;;;;2.90;1.90;;;18.30;99.90;;;;;;5016059;28;20212;-91
2022/07/31 03:51:42;;;;;;;2.75;1.92;;;18.30;99.90;;;;;;5015605;28;20216;-95
2022/07/31 03:54:08;;;;;;;3.20;2.05;;;18.30;99.90;;;;;;5015328;28;20181;-92
2022/07/31 03:56:34;;;;;;;2.42;2.00;;;18.30;99.90;;;;;;5017042;28;20264;-93
2022/07/31 03:59:01;;;;;;;2.15;1.90;;;18.30;99.90;;;;;;5016727;28;20566;-93
2022/07/31 04:01:27;;;;;;;3.35;2.08;;;18.40;99.90;;;;;;5016191;28;20197;-92
2022/07/31 04:03:59;;;;;;;6.55;2.70;;;18.40;99.90;;;;;;4999184;28;20548;-92
2022/07/31 04:06:24;;;;;;;4.15;2.78;;;18.40;99.90;;;;;;5016350;28;20700;-93
2022/07/31 04:08:50;;;;;;;2.78;1.98;;;18.40;99.90;;;;;;5017522;28;20177;-94
2022/07/31 04:11:16;;;;;;;3.28;2.38;;;18.40;99.90;;;;;;5017325;28;20661;-92
2022/07/31 04:13:42;;;;;;;5.95;2.97;;;18.40;99.90;;;;;;5016556;28;20185;-94
2022/07/31 04:16:07;;;;;;;5.70;3.33;;;18.50;99.90;;;;;;4998956;28;20576;-93
2022/07/31 04:18:33;;;;;;;5.63;2.97;;;18.50;99.90;;;;;;5016222;28;20181;-93
2022/07/31 04:20:59;;;;;;;5.38;3.25;;;18.50;99.90;;;;;;5016253;28;20280;-91
2022/07/31 04:23:25;;;;;;;6.68;3.92;;;18.50;99.90;;;;;;5016493;28;20208;-91
2022/07/31 04:25:51;;;;;;;5.28;3.70;;;18.50;99.90;;;;;;5016323;28;20177;-92
2022/07/31 04:28:16;;;;;;;4.38;3.45;;;18.60;99.90;;;;;;5015761;28;20193;-93
2022/07/31 04:30:42;;;;;;;4.57;3.13;;;18.60;99.90;;;;;;5002027;28;20196;-93
2022/07/31 04:33:08;;;;;;;9.40;3.95;;;18.60;99.90;;;;;;5020660;28;20182;-90
2022/07/31 04:35:34;;;;;;;7.95;4.38;;;18.60;99.90;;;;;;5023349;28;20181;-95
2022/07/31 04:38:00;;;;;;;7.72;3.22;;;18.50;99.90;;;;;;5006606;28;20188;-93
2022/07/31 04:40:26;;;;;;;9.98;4.72;;;18.60;99.90;;;;;;5037821;28;20646;-93
2022/07/31 04:42:53;;;;;;;8.07;3.88;;;18.60;99.90;;;;;;5035480;28;20217;-89
2022/07/31 04:45:19;;;;;;;9.55;4.20;;;18.60;99.90;;;;;;5035337;28;20207;-93
2022/07/31 04:47:44;;;;;;;7.55;4.00;;;18.60;99.90;;;;;;5017622;28;20189;-93
2022/07/31 04:50:10;;;;;;;8.82;4.28;;;18.60;99.90;;;;;;5001124;28;20604;-92
2022/07/31 04:52:35;;;;;;;8.85;3.95;;;18.70;99.90;;;;;;5036792;28;20184;-93
2022/07/31 04:55:01;;;;;;;7.43;4.57;;;18.70;99.90;;;;;;5038614;28;20212;-92
2022/07/31 04:57:26;;;;;;;7.05;4.40;;;18.70;99.90;;;;;;5040447;28;20258;-93
2022/07/31 04:59:52;;;;;;;8.70;3.95;;;18.70;99.90;;;;;;5037536;28;20179;-95
2022/07/31 05:02:18;;;;;;;6.68;4.05;;;18.70;99.90;;;;;;5041446;28;20212;-93
2022/07/31 05:04:43;;;;;;;8.70;4.53;;;18.80;99.90;;;;;;5028678;28;20204;-93
2022/07/31 05:07:09;;;;;;;8.25;4.80;;;18.80;99.90;;;;;;5045890;28;20227;-93
2022/07/31 05:09:34;;;;;;;6.22;4.53;;;18.80;99.90;;;;;;5046564;28;20188;-95
2022/07/31 05:12:00;;;;;;;9.48;4.90;;;18.80;99.90;;;;;;5044518;28;20181;-96
2022/07/31 05:14:27;;;;;;;7.47;4.35;;;18.80;99.90;;;;;;5028157;28;20185;-96
2022/07/31 05:16:53;;;;;;;4.28;3.28;;;18.80;99.90;;;;;;5013778;28;20697;-96
2022/07/31 05:19:18;;;;;;;8.63;4.97;;;18.80;99.90;;;;;;5040803;28;20212;-95
2022/07/31 05:21:45;;;;;;;5.90;3.58;;;18.80;99.90;;;;;;5038151;28;20208;-94
2022/07/31 05:24:11;;;;;;;10.75;4.25;;;18.80;99.90;;;;;;5021558;28;20295;-93
2022/07/31 05:26:37;;;;;;;7.03;4.38;;;18.80;99.90;;;;;;5021342;28;20181;-93
2022/07/31 05:29:03;;;;;;;6.25;4.30;;;18.80;99.90;;;;;;5020374;28;20648;-92
2022/07/31 05:31:29;;;;;;;5.15;3.95;;;18.80;99.90;;;;;;5004291;28;20216;-93
2022/07/31 05:33:57;;;;;;;6.47;4.00;;;18.80;99.90;;;;;;5038292;28;20255;-95
2022/07/31 05:36:25;;;;;;;4.70;3.60;;;18.80;99.90;;;;;;5037049;28;20622;-95
2022/07/31 05:38:50;;;;;;;6.35;4.15;;;18.80;99.90;;;;;;5037590;28;20184;-93
2022/07/31 05:41:16;;;;;;;5.75;4.25;;;18.90;99.90;;;;;;5020650;28;20215;-93
2022/07/31 05:43:42;;;;;;;6.25;3.85;;;18.90;99.90;;;;;;5024737;28;20608;-93
2022/07/31 05:46:08;;;;;;;7.38;4.50;;;18.90;99.90;;;;;;5021449;28;20626;-94
2022/07/31 05:48:34;;;;;;;5.57;3.80;;;18.90;99.90;;;;;;5038982;28;20259;-95
2022/07/31 05:50:59;;;;;;;6.40;4.50;;;19.00;99.90;;;;;;5021158;28;20203;-94
2022/07/31 05:53:25;;;;;;;8.63;4.32;;;19.00;99.90;;;;;;5021736;28;20652;-92
2022/07/31 05:55:51;;;;;;;7.32;4.70;;;19.00;99.90;;;;;;5037785;28;20630;-93
2022/07/31 05:58:18;;;;;;;5.88;3.97;;;18.90;99.90;;;;;;5041869;28;20221;-95
2022/07/31 06:00:46;;;;;;;5.07;3.25;;;18.90;99.90;;;;;;5031450;28;20246;-93
2022/07/31 06:03:11;;;;;;;6.63;4.32;;;18.90;99.90;;;;;;5032505;28;20275;-93
2022/07/31 06:05:40;;;;;;;8.18;4.78;;;18.90;99.90;;;;;;5027918;28;20743;-92
2022/07/31 06:08:08;;;;;;;6.53;4.25;;;18.90;99.90;;;;;;5033745;28;20207;-92
2022/07/31 06:10:38;;;;;;;7.90;4.00;;;18.80;99.90;;;;;;5031893;28;20179;-93
2022/07/31 06:13:04;;;;;;;7.18;4.55;;;18.80;99.90;;;;;;5050803;28;20173;-94
2022/07/31 06:15:30;;;;;;;6.93;4.63;;;18.80;99.90;;;;;;5099941;23;20298;-93
2022/07/31 06:17:56;;;;;;;9.80;5.32;;;18.80;99.90;;;;;;5054027;28;20184;-96
2022/07/31 06:20:21;;;;;;;7.68;5.15;;;18.80;99.90;;;;;;5052108;28;20187;-95
2022/07/31 06:22:47;;;;;;;7.55;4.78;;;18.80;99.90;;;;;;5054766;28;20212;-94
2022/07/31 06:27:41;;;;;;;9.60;5.18;;;;;;;;;;5538856;23;20279;-95
2022/07/31 06:30:08;;;;;;;10.65;4.78;;;18.80;99.90;;;;;;5104672;23;20248;-86
2022/07/31 06:35:10;;;;;;;8.43;6.05;;;;;;;;;;5263879;23;20751;-92
2022/07/31 06:37:35;;;;;;;9.90;5.88;;;19.40;99.90;;;;;;5006574;28;20173;-88
2022/07/31 06:40:02;;;;;;;11.90;6.20;;;18.90;99.90;;;;;;4980324;28;20185;-88
2022/07/31 06:42:27;;;;;;;10.45;5.70;;;18.90;99.90;;;;;;5013452;28;20220;-86
2022/07/31 06:44:53;;;;;;;8.85;5.25;;;18.90;99.90;;;;;;5019031;28;20178;-88
2022/07/31 06:47:21;;;;;;;11.63;5.50;;;18.80;99.90;;;;;;5019147;28;20178;-87
2022/07/31 06:49:47;;;;;;;7.40;4.72;;;18.90;99.90;;;;;;5019398;28;20181;-87
2022/07/31 06:52:13;;;;;;;9.07;5.32;;;18.80;99.90;;;;;;5017998;28;20162;-86
2022/07/31 06:54:38;;;;;;;8.85;5.20;;;18.80;99.90;;;;;;5018919;28;20238;-86
2022/07/31 06:57:04;;;;;;;9.38;5.13;;;18.80;99.90;;;;;;5012542;28;20259;-89
2022/07/31 06:59:30;;;;;;;11.63;5.53;;;18.80;99.90;;;;;;5028760;28;20204;-87
2022/07/31 07:01:55;;;;;;;7.32;4.70;;;18.90;99.90;;;;;;4994047;28;20214;-88
2022/07/31 07:04:21;;;;;;;9.20;5.20;;;19.00;99.90;;;;;;5029000;28;20233;-87
2022/07/31 07:06:46;;;;;;;7.00;4.63;;;19.00;99.90;;;;;;4996115;28;20173;-88
2022/07/31 07:09:12;;;;;;;7.05;4.75;;;19.00;99.90;;;;;;5020810;28;20718;-88
2022/07/31 07:11:38;;;;;;;7.25;4.90;;;19.00;99.90;;;;;;5016719;28;20240;-87
2022/07/31 07:14:04;;;;;;;9.77;5.65;;;19.00;99.90;;;;;;4999987;28;20275;-89
2022/07/31 07:16:29;;;;;;;8.23;5.15;;;19.00;99.90;;;;;;5021408;28;20165;-89
2022/07/31 07:18:55;;;;;;;10.10;5.22;;;18.90;99.90;;;;;;5017845;28;20205;-87
2022/07/31 07:21:20;;;;;;;9.73;5.53;;;18.80;99.90;;;;;;5018759;28;20288;-89
2022/07/31 07:23:46;;;;;;;9.43;5.60;;;18.80;99.90;;;;;;4984812;28;20256;-90
2022/07/31 07:26:12;;;;;;;9.32;5.72;;;18.80;99.90;;;;;;5018315;28;20183;-89
2022/07/31 07:28:38;;;;;;;12.45;6.30;;;18.80;99.90;;;;;;5000349;28;20189;-90
2022/07/31 07:31:04;;;;;;;8.00;4.97;;;18.80;99.90;;;;;;5002204;28;20181;-89
2022/07/31 07:33:30;;;;;;;8.07;5.30;;;18.80;99.90;;;;;;5016557;28;20184;-88
2022/07/31 07:35:56;;;;;;;7.03;5.18;;;18.80;99.90;;;;;;5018503;28;20687;-89
2022/07/31 07:38:22;;;;;;;11.00;5.75;;;18.80;99.90;;;;;;5015953;28;20205;-90
2022/07/31 07:40:48;;;;;;;8.50;5.78;;;18.90;99.90;;;;;;4984605;28;20196;-90
2022/07/31 07:43:13;;;;;;;10.77;5.25;;;18.90;99.90;;;;;;4977763;28;20253;-91
2022/07/31 07:45:40;;;;;;;10.25;6.38;;;18.90;99.90;;;;;;4976242;28;20186;-89
2022/07/31 07:48:05;;;;;;;7.35;5.18;;;19.00;99.90;;;;;;4976863;28;20178;-87
2022/07/31 07:50:31;;;;;;;12.25;5.78;;;18.90;99.90;;;;;;4976384;28;20188;-88
2022/07/31 07:52:57;;;;;;;10.15;5.57;;;19.00;99.90;;;;;;4993659;28;20178;-88
2022/07/31 07:55:23;;;;;;;11.40;5.53;;;19.00;99.90;;;;;;4993456;28;20193;-90
2022/07/31 07:57:48;;;;;;;7.43;4.72;;;19.10;99.90;;;;;;4993888;28;20201;-89
2022/07/31 08:00:15;;;;;;;9.35;5.30;;;19.20;99.90;;;;;;4993650;28;20178;-90
2022/07/31 08:02:41;;;;;;;8.70;4.88;;;19.20;99.90;;;;;;5004012;28;20220;-89
2022/07/31 08:05:07;;;;;;;8.55;4.65;;;19.30;99.90;;;;;;4996365;28;20208;-89
2022/07/31 08:07:35;;;;;;;9.05;5.40;;;19.30;99.90;;;;;;4995786;28;20701;-91
2022/07/31 08:10:01;;;;;;;7.07;4.50;;;19.30;99.90;;;;;;5015455;28;20205;-90
2022/07/31 08:12:27;;;;;;;9.07;5.03;;;19.40;99.90;;;;;;5017931;28;20181;-89
2022/07/31 08:14:53;;;;;;;7.60;4.68;;;19.40;99.90;;;;;;5007048;28;20189;-89
2022/07/31 08:17:19;;;;;;;8.77;5.38;;;19.40;99.90;;;;;;5005049;28;20233;-89
2022/07/31 08:19:45;;;;;;;9.20;5.03;;;19.40;99.90;;;;;;4994141;28;20178;-91
2022/07/31 08:22:11;;;;;;;6.75;4.03;;;19.40;99.90;;;;;;4976517;28;20636;-87
2022/07/31 08:24:37;;;;;;;6.88;4.30;;;19.40;99.90;;;;;;4976032;28;20182;-88
2022/07/31 08:29:47;;;;;;;8.13;4.45;;;19.50;99.90;;;;;;4993491;28;20180;-89
2022/07/31 08:32:13;;;;;;;8.60;4.50;;;19.50;99.90;;;;;;4976392;28;20185;-88
2022/07/31 08:34:39;;;;;;;5.63;4.05;;;19.50;99.90;;;;;;4959325;28;20241;-88
2022/07/31 08:37:05;;;;;;;9.73;5.35;;;19.50;99.90;;;;;;4976151;28;20185;-89
2022/07/31 08:39:35;;;;;;;7.75;4.68;;;19.50;99.90;;;;;;4977279;28;20189;-89
2022/07/31 08:42:08;;;;;;;7.40;4.82;;;19.60;99.90;;;;;;4994626;28;20201;-91
2022/07/31 08:44:35;;;;;;;6.47;4.00;;;19.50;99.90;;;;;;4995872;28;20638;-89
2022/07/31 08:47:04;;;;;;;6.95;4.65;;;19.60;99.90;;;;;;4996306;28;20185;-90
2022/07/31 08:49:35;;;;;;;6.65;4.60;;;19.50;99.90;;;;;;4998612;28;20718;-89
2022/07/31 08:52:01;;;;;;;6.88;4.28;;;19.60;99.90;;;;;;4982268;28;20241;-88
2022/07/31 08:54:30;;;;;;;5.85;4.25;;;19.50;99.90;;;;;;4980332;28;20178;-92
2022/07/31 08:56:56;;;;;;;8.23;4.35;;;19.50;99.90;;;;;;4982070;28;20213;-96
2022/07/31 08:59:22;;;;;;;6.40;4.07;;;19.50;99.90;;;;;;4998540;28;20188;-89
2022/07/31 09:01:47;;;;;;;7.47;4.57;;;19.50;99.90;;;;;;4963745;28;20657;-87
2022/07/31 09:04:13;;;;;;;7.38;3.80;;;19.50;99.90;;;;;;4998252;28;20181;-89
2022/07/31 09:06:39;;;;;;;7.72;4.60;;;19.50;99.90;;;;;;4996992;28;20174;-88
2022/07/31 09:09:05;;;;;;;9.73;5.25;;;19.50;99.90;;;;;;4997472;28;20210;-89
2022/07/31 09:11:32;;;;;;;8.75;4.82;;;19.50;99.90;;;;;;4996780;28;20257;-85
2022/07/31 09:14:02;;;;;;;6.38;4.30;;;19.50;99.90;;;;;;4997292;28;20252;-87
2022/07/31 09:16:29;;;;;;;7.18;5.15;;;19.40;99.90;;;;;;4979136;28;20185;-89
2022/07/31 09:19:03;;;;;;;7.63;4.65;;;19.40;99.90;;;;;;4979240;28;20654;-89
2022/07/31 09:21:42;;;;;;;8.25;4.75;;;19.40;99.90;;;;;;4980912;28;20225;-86
2022/07/31 09:24:10;;;;;;;9.35;5.47;;;19.40;99.90;;;;;;4997030;28;20208;-86
2022/07/31 09:26:36;;;;;;;8.05;4.63;;;19.30;99.90;;;;;;4996352;28;20191;-89
2022/07/31 09:29:07;;;;;;;8.75;5.25;;;19.30;99.90;;;;;;4979866;28;20552;-88
2022/07/31 09:31:33;;;;;;;6.65;4.53;;;19.30;99.90;;;;;;4996696;28;20257;-89
2022/07/31 09:34:00;;;;;;;9.45;4.72;;;19.40;99.90;;;;;;4978903;28;20595;-90
2022/07/31 09:36:26;;;;;;;10.25;5.43;;;19.60;99.90;;;;;;4997139;28;20233;-88
2022/07/31 09:38:52;;;;;;;6.68;4.15;;;19.80;99.90;;;;;;4996692;28;20537;-88
2022/07/31 09:41:20;;;;;;;6.68;3.88;;;19.80;99.90;;;;;;4979573;28;20209;-88
2022/07/31 09:43:55;;;;;;;8.52;5.07;;;20.00;99.90;;;;;;4997701;28;20192;-89
2022/07/31 09:46:21;;;;;;;7.53;4.43;;;20.20;99.90;;;;;;4984432;28;20184;-91
2022/07/31 09:48:52;;;;;;;6.32;3.92;;;20.40;99.90;;;;;;5017173;28;20178;-91
2022/07/31 09:51:17;;;;;;;7.68;4.20;;;20.60;99.90;;;;;;5016693;28;20188;-91
2022/07/31 09:53:44;;;;;;;6.72;3.75;;;20.50;99.90;;;;;;4998606;28;20546;-90
2022/07/31 09:56:11;;;;;;;6.22;3.65;;;20.30;99.90;;;;;;4998740;28;20200;-90
2022/07/31 09:58:39;;;;;;;4.13;2.92;;;20.30;99.90;;;;;;5015987;28;20169;-90
2022/07/31 10:01:07;;;;;;;5.28;3.22;;;20.20;99.90;;;;;;5015911;28;20216;-89
2022/07/31 10:03:38;;;;;;;4.03;3.17;;;20.10;99.90;;;;;;5016279;28;20180;-89
2022/07/31 10:06:07;;;;;;;6.85;4.53;;;20.20;99.90;;;;;;5017287;28;20635;-88
2022/07/31 10:08:36;;;;;;;6.65;3.58;;;20.30;99.90;;;;;;5015799;28;20200;-89
2022/07/31 10:11:03;;;;;;;3.92;2.95;;;20.30;99.90;;;;;;4998553;28;20181;-89
2022/07/31 10:13:34;;;;;;;5.50;3.63;;;20.40;99.90;;;;;;5015785;28;20177;-87
2022/07/31 10:16:00;;;;;;;4.72;3.78;;;20.50;99.90;;;;;;5014710;28;21088;-88
2022/07/31 10:18:30;;;;;;;5.70;3.63;;;20.60;99.90;;;;;;5015223;28;20217;-90
2022/07/31 10:20:58;;;;;;;5.53;3.72;;;20.70;99.90;;;;;;5015233;28;20196;-87
2022/07/31 10:23:27;;;;;;;5.40;3.55;;;20.80;99.90;;;;;;4997697;28;20666;-88
2022/07/31 10:25:58;;;;;;;6.25;4.25;;;21.00;99.90;;;;;;4998012;28;20201;-90
2022/07/31 10:28:24;;;;;;;4.57;3.45;;;21.10;99.90;;;;;;5015808;28;20228;-90
2022/07/31 10:30:51;;;;;;;4.78;2.92;;;21.30;99.90;;;;;;4980989;28;20183;-88
2022/07/31 10:33:17;;;;;;;4.25;3.22;;;21.60;99.90;;;;;;4997401;28;20182;-88
2022/07/31 10:35:51;;;;;;;4.95;2.83;;;21.80;99.90;;;;;;5014526;28;20324;-85
2022/07/31 10:38:24;;;;;;;4.63;2.67;;;22.00;99.90;;;;;;5015477;28;20169;-88
2022/07/31 10:41:16;;;;;;;4.82;3.50;;;22.20;99.90;;;;;;5014187;28;20162;-86
2022/07/31 10:43:52;;;;;;;4.95;2.67;;;22.10;99.90;;;;;;5014627;28;20657;-88
2022/07/31 10:46:31;;;;;;;4.55;2.67;;;22.10;99.90;;;;;;4997730;28;20649;-87
2022/07/31 10:48:58;;;;;;;2.35;2.15;;;22.00;99.90;;;;;;5015716;28;20201;-89
2022/07/31 10:51:25;;;;;;;5.03;2.92;;;22.00;99.90;;;;;;5015348;28;20677;-87
2022/07/31 10:53:56;;;;;;;6.10;3.83;;;22.10;99.90;;;;;;5014305;28;20844;-88
2022/07/31 10:56:21;;;;;;;4.57;3.38;;;21.90;99.90;;;;;;4997107;28;20185;-86
2022/07/31 10:58:49;;;;;;;3.85;2.65;;;21.80;99.90;;;;;;4996994;28;20272;-86
2022/07/31 11:01:15;;;;;;;3.22;2.67;;;21.90;99.90;;;;;;5005732;28;20247;-87
2022/07/31 11:03:48;;;;;;;3.85;2.65;;;21.80;99.90;;;;;;4993060;28;20591;-88
2022/07/31 11:06:15;;;;;;;4.53;3.17;;;21.80;99.90;;;;;;5005182;28;20173;-88
2022/07/31 11:08:45;;;;;;;5.90;3.45;;;21.70;99.90;;;;;;4989893;28;20189;-88
2022/07/31 11:11:12;;;;;;;4.25;3.03;;;21.70;99.90;;;;;;4996020;28;20272;-88
2022/07/31 11:13:56;;;;;;;4.25;2.40;;;21.70;99.90;;;;;;5014432;28;20662;-87
2022/07/31 11:16:22;;;;;;;3.75;2.88;;;21.70;99.90;;;;;;5014434;28;20162;-88
2022/07/31 11:19:03;;;;;;;3.85;3.00;;;21.60;99.90;;;;;;4996408;28;20184;-87
2022/07/31 11:21:37;;;;;;;3.75;3.13;;;21.50;99.90;;;;;;5013802;28;20713;-86
2022/07/31 11:24:20;;;;;;;4.32;2.67;;;21.40;99.90;;;;;;5013599;28;20164;-87
2022/07/31 11:26:57;;;;;;;4.75;3.20;;;21.40;99.90;;;;;;5013474;28;20588;-86
2022/07/31 11:29:34;;;;;;;5.57;3.20;;;21.30;99.90;;;;;;5013874;28;20243;-87
2022/07/31 11:32:14;;;;;;;4.00;2.97;;;21.20;99.90;;;;;;5013167;28;20652;-87
2022/07/31 11:34:52;;;;;;;5.03;3.30;;;21.20;99.90;;;;;;4996037;28;20232;-88
2022/07/31 11:37:20;;;;;;;4.35;3.35;;;21.30;99.90;;;;;;5013650;28;20177;-88
2022/07/31 11:39:47;;;;;;;2.90;2.60;;;21.30;99.90;;;;;;4980054;28;20272;-86
2022/07/31 11:42:13;;;;;;;4.18;2.97;;;21.30;99.90;;;;;;5013390;28;20212;-88
2022/07/31 11:44:39;;;;;;;4.97;3.25;;;21.30;99.90;;;;;;5013657;28;20635;-88
2022/07/31 11:47:05;;;;;;;3.53;2.80;;;21.30;99.90;;;;;;5013742;28;20237;-88
2022/07/31 11:49:35;;;;;;;3.40;2.67;;;21.30;99.90;;;;;;5013512;28;20173;-88
2022/07/31 11:52:03;;;;;;;4.47;2.83;;;21.30;99.90;;;;;;4996796;28;20177;-87
2022/07/31 11:54:29;;;;;;;3.95;2.72;;;21.40;99.90;;;;;;5013997;28;20189;-87
2022/07/31 11:56:55;;;;;;;3.83;2.72;;;21.50;99.90;;;;;;5013294;28;20180;-86
2022/07/31 11:59:39;;;;;;;3.58;2.58;;;21.60;99.90;;;;;;5006422;28;20186;-88
2022/07/31 12:02:10;;;;;;;3.42;2.85;;;21.60;99.90;;;;;;5003029;28;20280;-87
2022/07/31 12:04:37;;;;;;;5.35;3.30;;;21.60;99.90;;;;;;5002152;28;20174;-87
2022/07/31 12:07:04;;;;;;;3.40;2.50;;;21.70;99.90;;;;;;4980092;28;20588;-87
2022/07/31 12:09:31;;;;;;;4.80;2.83;;;21.70;99.90;;;;;;4993523;28;20260;-87
2022/07/31 12:11:57;;;;;;;4.15;2.92;;;21.70;99.90;;;;;;4975967;28;20192;-87
2022/07/31 12:14:31;;;;;;;3.63;2.72;;;21.50;99.90;;;;;;4994055;28;20177;-89
2022/07/31 12:16:57;;;;;;;4.43;2.75;;;21.50;99.90;;;;;;4993534;28;20162;-87
2022/07/31 12:19:33;;;;;;;4.30;3.20;;;21.50;99.90;;;;;;4976145;28;20237;-89
2022/07/31 12:22:00;;;;;;;3.17;2.58;;;21.40;99.90;;;;;;4992254;28;20202;-87
2022/07/31 12:24:25;;;;;;;3.88;2.90;;;21.40;99.90;;;;;;4993283;28;20178;-88
2022/07/31 12:26:58;;;;;;;4.20;2.72;;;21.40;99.90;;;;;;4993040;28;20174;-87
2022/07/31 12:29:37;;;;;;;3.63;2.60;;;21.30;99.90;;;;;;4976022;28;20186;-87
2022/07/31 12:32:04;;;;;;;3.88;3.08;;;21.30;99.90;;;;;;4993071;28;20166;-87
2022/07/31 12:34:39;;;;;;;3.22;2.80;;;21.30;99.90;;;;;;4975748;28;20233;-88
2022/07/31 12:37:14;;;;;;;4.30;3.10;;;21.30;99.90;;;;;;4995667;28;20252;-87
2022/07/31 12:39:46;;;;;;;2.97;2.42;;;21.20;99.90;;;;;;4993279;28;20544;-92
2022/07/31 12:42:23;;;;;;;4.28;2.72;;;21.10;99.90;;;;;;4992965;28;20288;-91
2022/07/31 12:44:50;;;;;;;3.53;2.70;;;21.00;99.90;;;;;;4978444;28;20181;-88
2022/07/31 12:47:22;;;;;;;6.55;2.90;;;21.00;99.90;;;;;;4999855;28;20186;-89
2022/07/31 12:49:48;;;;;;;3.03;2.55;;;20.80;99.90;;;;;;4983728;28;20340;-88
2022/07/31 12:52:14;;;;;;;4.43;2.92;;;20.80;99.90;;;;;;5012489;28;20256;-88
2022/07/31 12:54:39;;;;;;;4.35;3.10;;;20.70;99.90;;;;;;5012793;28;20173;-88
2022/07/31 12:57:05;;;;;;;3.10;2.80;;;20.70;99.90;;;;;;4978517;28;20206;-89
2022/07/31 12:59:30;;;;;;;3.80;3.03;;;20.70;99.90;;;;;;5012602;28;20614;-89